Juergen K — PBKV — position and weather

sailwx.info

Track history (hours):
 
Tides and Currents Weather Stations Pressure Air Temp Water Temp Dewpoint Dewpoint Depression Visibility Wind Speed Wind Dir Waves Ship Positions

Juergen K

Last reported at 2017-Dec-14 14:57 UTC. Time now 2017-Dec-16 11:06 UTC.
Position N 37°32' W 000°52'.

Length 89 m; draft 3.6 m.

Type: Cargo ship. MMSI: 244329000.

Date/timePositionNaut miles runAvg speedWind from/ knotsBaromVisibWave heightAir tempDewpointWater temp
2017-Dec-14 14:57N 37°32' W 000°52'4 7.9
2017-Dec-14 14:30N 37°32' W 000°48'4 7.9
2017-Dec-14 14:00N 37°33' W 000°43'4 8.3
2017-Dec-14 13:30N 37°33' W 000°38'4 8.1
2017-Dec-14 13:00N 37°35' W 000°33'4 8.4
2017-Dec-14 12:30N 37°38' W 000°30'4 8.9
2017-Dec-14 12:00N 37°42' W 000°27'9 9.2
2017-Dec-14 11:03N 37°50' W 000°21'6 0.1
2017-Dec-12 07:24N 37°44' W 000°22'410.3
2017-Dec-12 07:00N 37°40' W 000°25'510.0
2017-Dec-12 06:30N 37°36' W 000°28'5 9.8
2017-Dec-12 06:00N 37°32' W 000°32'810.1
2017-Dec-12 05:16N 37°27' W 000°39'4 9.9
2017-Dec-12 04:52N 37°25' W 000°43'3 9.8
2017-Dec-12 04:30N 37°22' W 000°46'6 9.8
2017-Dec-12 03:57N 37°19' W 000°51'4 9.6
2017-Dec-12 03:29N 37°16' W 000°55'  
2017-Dec-09 19:03N 38°21' W 010°00'3 9.3
2017-Dec-09 18:40N 38°25' W 010°01'2 9.3
2017-Dec-09 18:30N 38°26' W 010°01'5 9.4
2017-Dec-09 18:00N 38°31' W 010°03'5 9.3
2017-Dec-09 17:30N 38°35' W 010°04'5 9.7
2017-Dec-09 17:00N 38°40' W 010°06'5 9.7
2017-Dec-09 16:30N 38°45' W 010°06'5 9.4
2017-Dec-09 16:00N 38°50' W 010°06'5 9.5
2017-Dec-09 15:29N 38°55' W 010°06'5 9.6
2017-Dec-09 15:00N 38°59' W 010°06'5 9.7
2017-Dec-09 14:28N 39°05' W 010°06'5 9.6
2017-Dec-09 13:59N 39°09' W 010°06'510.1
2017-Dec-09 13:28N 39°14' W 010°06'296 7.8
2017-Dec-07 23:35N 43°51' W 007°45'1 8.3
2017-Dec-07 23:27N 43°51' W 007°43'4 8.5
2017-Dec-07 23:01N 43°51' W 007°38'5 8.7
2017-Dec-07 22:29N 43°49' W 007°32'4 9.0
2017-Dec-07 22:00N 43°48' W 007°26'5 9.2
2017-Dec-07 21:30N 43°46' W 007°21'  
Track history (hours):
 
Tides and Currents Weather Stations Pressure Air Temp Water Temp Dewpoint Dewpoint Depression Visibility Wind Speed Wind Dir Waves Ship Positions

Juergen K

Last reported at 2017-Dec-14 14:57 UTC. Time now 2017-Dec-16 11:06 UTC.
Position N 37°32' W 000°52'.

Length 89 m; draft 3.6 m.

Type: Cargo ship. MMSI: 244329000.

Date/timePositionNaut miles runAvg speedWind from/ knotsBaromVisibWave heightAir tempDewpointWater temp
2017-Dec-14 14:57N 37°32' W 000°52'4 7.9
2017-Dec-14 14:30N 37°32' W 000°48'4 7.9
2017-Dec-14 14:00N 37°33' W 000°43'4 8.3
2017-Dec-14 13:30N 37°33' W 000°38'4 8.1
2017-Dec-14 13:00N 37°35' W 000°33'4 8.4
2017-Dec-14 12:30N 37°38' W 000°30'4 8.9
2017-Dec-14 12:00N 37°42' W 000°27'9 9.2
2017-Dec-14 11:03N 37°50' W 000°21'6 0.1
2017-Dec-12 07:24N 37°44' W 000°22'410.3
2017-Dec-12 07:00N 37°40' W 000°25'510.0
2017-Dec-12 06:30N 37°36' W 000°28'5 9.8
2017-Dec-12 06:00N 37°32' W 000°32'810.1
2017-Dec-12 05:16N 37°27' W 000°39'4 9.9
2017-Dec-12 04:52N 37°25' W 000°43'3 9.8
2017-Dec-12 04:30N 37°22' W 000°46'6 9.8
2017-Dec-12 03:57N 37°19' W 000°51'4 9.6
2017-Dec-12 03:29N 37°16' W 000°55'  
2017-Dec-09 19:03N 38°21' W 010°00'3 9.3
2017-Dec-09 18:40N 38°25' W 010°01'2 9.3
2017-Dec-09 18:30N 38°26' W 010°01'5 9.4
2017-Dec-09 18:00N 38°31' W 010°03'5 9.3
2017-Dec-09 17:30N 38°35' W 010°04'5 9.7
2017-Dec-09 17:00N 38°40' W 010°06'5 9.7
2017-Dec-09 16:30N 38°45' W 010°06'5 9.4
2017-Dec-09 16:00N 38°50' W 010°06'5 9.5
2017-Dec-09 15:29N 38°55' W 010°06'5 9.6
2017-Dec-09 15:00N 38°59' W 010°06'5 9.7
2017-Dec-09 14:28N 39°05' W 010°06'5 9.6
2017-Dec-09 13:59N 39°09' W 010°06'510.1
2017-Dec-09 13:28N 39°14' W 010°06'296 7.8
2017-Dec-07 23:35N 43°51' W 007°45'1 8.3
2017-Dec-07 23:27N 43°51' W 007°43'4 8.5
2017-Dec-07 23:01N 43°51' W 007°38'5 8.7
2017-Dec-07 22:29N 43°49' W 007°32'4 9.0
2017-Dec-07 22:00N 43°48' W 007°26'5 9.2
2017-Dec-07 21:30N 43°46' W 007°21'  

Dump ship's entire track history